sensor_id;sensor_type;location;lat;lon;timestamp;temperature;humidity
4651;DHT22;2338;49.602;8.722;2022-12-18T00:02:43;-7.90;99.90
4651;DHT22;2338;49.602;8.722;2022-12-18T00:05:28;-7.70;99.90
4651;DHT22;2338;49.602;8.722;2022-12-18T00:08:14;-7.50;99.90
4651;DHT22;2338;49.602;8.722;2022-12-18T00:11:03;-7.40;99.90
4651;DHT22;2338;49.602;8.722;2022-12-18T00:13:51;-7.40;99.90
4651;DHT22;2338;49.602;8.722;2022-12-18T00:16:37;-7.40;99.90
4651;DHT22;2338;49.602;8.722;2022-12-18T00:19:22;-7.40;99.90
4651;DHT22;2338;49.602;8.722;2022-12-18T00:22:08;-7.50;99.90
4651;DHT22;2338;49.602;8.722;2022-12-18T00:24:54;-7.60;99.90
4651;DHT22;2338;49.602;8.722;2022-12-18T00:27:39;-7.80;99.90
4651;DHT22;2338;49.602;8.722;2022-12-18T00:30:27;-7.80;99.90
4651;DHT22;2338;49.602;8.722;2022-12-18T00:33:13;-7.70;99.90
4651;DHT22;2338;49.602;8.722;2022-12-18T00:36:00;-7.70;99.90
4651;DHT22;2338;49.602;8.722;2022-12-18T00:38:47;-7.80;99.90
4651;DHT22;2338;49.602;8.722;2022-12-18T00:41:33;-7.70;99.90
4651;DHT22;2338;49.602;8.722;2022-12-18T00:44:36;-7.70;99.90
4651;DHT22;2338;49.602;8.722;2022-12-18T00:47:23;-7.70;99.90
4651;DHT22;2338;49.602;8.722;2022-12-18T00:50:09;-7.60;99.90
4651;DHT22;2338;49.602;8.722;2022-12-18T00:52:55;-7.60;99.90
4651;DHT22;2338;49.602;8.722;2022-12-18T00:55:41;-7.60;99.90
4651;DHT22;2338;49.602;8.722;2022-12-18T00:58:27;-7.60;99.90
4651;DHT22;2338;49.602;8.722;2022-12-18T01:01:13;-7.70;99.90
4651;DHT22;2338;49.602;8.722;2022-12-18T01:04:01;-7.60;99.90
4651;DHT22;2338;49.602;8.722;2022-12-18T01:06:46;-7.70;99.90
4651;DHT22;2338;49.602;8.722;2022-12-18T01:09:32;-7.70;99.90
4651;DHT22;2338;49.602;8.722;2022-12-18T01:12:18;-7.80;99.90
4651;DHT22;2338;49.602;8.722;2022-12-18T01:15:05;-7.70;99.90
4651;DHT22;2338;49.602;8.722;2022-12-18T01:17:52;-7.90;99.90
4651;DHT22;2338;49.602;8.722;2022-12-18T01:20:39;-8.10;99.90
4651;DHT22;2338;49.602;8.722;2022-12-18T01:23:24;-8.10;99.90
4651;DHT22;2338;49.602;8.722;2022-12-18T01:26:14;-8.00;99.90
4651;DHT22;2338;49.602;8.722;2022-12-18T01:29:00;-7.90;99.90
4651;DHT22;2338;49.602;8.722;2022-12-18T01:31:46;-7.90;99.90
4651;DHT22;2338;49.602;8.722;2022-12-18T01:34:31;-8.00;99.90
4651;DHT22;2338;49.602;8.722;2022-12-18T01:37:18;-8.00;99.90
4651;DHT22;2338;49.602;8.722;2022-12-18T01:40:05;-8.10;99.90
4651;DHT22;2338;49.602;8.722;2022-12-18T01:42:51;-8.10;99.90
4651;DHT22;2338;49.602;8.722;2022-12-18T01:45:37;-8.20;99.90
4651;DHT22;2338;49.602;8.722;2022-12-18T01:48:22;-8.30;99.90
4651;DHT22;2338;49.602;8.722;2022-12-18T01:51:10;-8.20;99.90
4651;DHT22;2338;49.602;8.722;2022-12-18T01:53:57;-8.30;99.90
4651;DHT22;2338;49.602;8.722;2022-12-18T01:56:44;-8.30;99.90
4651;DHT22;2338;49.602;8.722;2022-12-18T01:59:31;-8.20;99.90
4651;DHT22;2338;49.602;8.722;2022-12-18T02:02:17;-8.20;99.90
4651;DHT22;2338;49.602;8.722;2022-12-18T02:05:04;-8.30;99.90
4651;DHT22;2338;49.602;8.722;2022-12-18T02:07:58;-8.20;99.90
4651;DHT22;2338;49.602;8.722;2022-12-18T02:10:54;-8.30;99.90
4651;DHT22;2338;49.602;8.722;2022-12-18T02:13:46;-8.40;99.90
4651;DHT22;2338;49.602;8.722;2022-12-18T02:16:42;-8.40;99.90
4651;DHT22;2338;49.602;8.722;2022-12-18T02:19:50;-8.40;99.90
4651;DHT22;2338;49.602;8.722;2022-12-18T02:22:45;-8.40;99.90
4651;DHT22;2338;49.602;8.722;2022-12-18T02:28:58;-8.30;99.90
4651;DHT22;2338;49.602;8.722;2022-12-18T02:31:53;-8.40;99.90
4651;DHT22;2338;49.602;8.722;2022-12-18T02:34:40;-8.40;99.90
4651;DHT22;2338;49.602;8.722;2022-12-18T02:37:27;-8.50;99.90
4651;DHT22;2338;49.602;8.722;2022-12-18T02:40:14;-8.50;99.90
4651;DHT22;2338;49.602;8.722;2022-12-18T02:43:08;-8.50;99.90
4651;DHT22;2338;49.602;8.722;2022-12-18T02:45:57;-8.60;99.90
4651;DHT22;2338;49.602;8.722;2022-12-18T02:48:43;-8.60;99.90
4651;DHT22;2338;49.602;8.722;2022-12-18T02:51:32;-8.60;99.90
4651;DHT22;2338;49.602;8.722;2022-12-18T02:54:35;-8.60;99.90
4651;DHT22;2338;49.602;8.722;2022-12-18T02:57:27;-8.50;99.90
4651;DHT22;2338;49.602;8.722;2022-12-18T03:00:17;-8.50;99.90
4651;DHT22;2338;49.602;8.722;2022-12-18T03:03:09;-8.50;99.90
4651;DHT22;2338;49.602;8.722;2022-12-18T03:06:03;-8.50;99.90
4651;DHT22;2338;49.602;8.722;2022-12-18T03:08:54;-8.50;99.90
4651;DHT22;2338;49.602;8.722;2022-12-18T03:11:45;-8.60;99.90
4651;DHT22;2338;49.602;8.722;2022-12-18T03:14:52;-8.70;99.90
4651;DHT22;2338;49.602;8.722;2022-12-18T03:17:43;-8.60;99.90
4651;DHT22;2338;49.602;8.722;2022-12-18T03:20:34;-8.60;99.90
4651;DHT22;2338;49.602;8.722;2022-12-18T03:23:22;-8.60;99.90
4651;DHT22;2338;49.602;8.722;2022-12-18T03:26:12;-8.50;99.90
4651;DHT22;2338;49.602;8.722;2022-12-18T03:29:02;-8.50;99.90
4651;DHT22;2338;49.602;8.722;2022-12-18T03:31:53;-8.40;99.90
4651;DHT22;2338;49.602;8.722;2022-12-18T03:34:41;-8.50;99.90
4651;DHT22;2338;49.602;8.722;2022-12-18T03:37:32;-8.50;99.90
4651;DHT22;2338;49.602;8.722;2022-12-18T03:40:20;-8.40;99.90
4651;DHT22;2338;49.602;8.722;2022-12-18T03:43:11;-8.40;99.90
4651;DHT22;2338;49.602;8.722;2022-12-18T03:46:06;-8.40;99.90
4651;DHT22;2338;49.602;8.722;2022-12-18T03:48:59;-8.50;99.90
4651;DHT22;2338;49.602;8.722;2022-12-18T03:51:49;-8.60;99.90
4651;DHT22;2338;49.602;8.722;2022-12-18T03:54:39;-8.60;99.90
4651;DHT22;2338;49.602;8.722;2022-12-18T03:57:27;-8.70;99.90
4651;DHT22;2338;49.602;8.722;2022-12-18T04:00:16;-8.80;99.90
4651;DHT22;2338;49.602;8.722;2022-12-18T04:03:04;-8.90;99.90
4651;DHT22;2338;49.602;8.722;2022-12-18T04:05:52;-8.80;99.90
4651;DHT22;2338;49.602;8.722;2022-12-18T04:08:38;-8.80;99.90
4651;DHT22;2338;49.602;8.722;2022-12-18T04:11:26;-8.80;99.90
4651;DHT22;2338;49.602;8.722;2022-12-18T04:14:12;-8.70;99.90
4651;DHT22;2338;49.602;8.722;2022-12-18T04:16:58;-8.70;99.90
4651;DHT22;2338;49.602;8.722;2022-12-18T04:19:44;-8.60;99.90
4651;DHT22;2338;49.602;8.722;2022-12-18T04:22:29;-8.50;99.90
4651;DHT22;2338;49.602;8.722;2022-12-18T04:25:15;-8.60;99.90
4651;DHT22;2338;49.602;8.722;2022-12-18T04:28:02;-8.50;99.90
4651;DHT22;2338;49.602;8.722;2022-12-18T04:30:48;-8.50;99.90
4651;DHT22;2338;49.602;8.722;2022-12-18T04:33:33;-8.60;99.90
4651;DHT22;2338;49.602;8.722;2022-12-18T04:36:19;-8.60;99.90
4651;DHT22;2338;49.602;8.722;2022-12-18T04:39:05;-8.60;99.90
4651;DHT22;2338;49.602;8.722;2022-12-18T04:41:51;-8.60;99.90
4651;DHT22;2338;49.602;8.722;2022-12-18T04:44:38;-8.60;99.90
4651;DHT22;2338;49.602;8.722;2022-12-18T04:47:23;-8.70;99.90
4651;DHT22;2338;49.602;8.722;2022-12-18T04:50:09;-8.80;99.90
4651;DHT22;2338;49.602;8.722;2022-12-18T04:52:56;-8.80;99.90
4651;DHT22;2338;49.602;8.722;2022-12-18T04:55:42;-8.80;99.90
4651;DHT22;2338;49.602;8.722;2022-12-18T04:58:27;-8.90;99.90
4651;DHT22;2338;49.602;8.722;2022-12-18T05:01:16;-8.90;99.90
4651;DHT22;2338;49.602;8.722;2022-12-18T05:04:02;-8.90;99.90
4651;DHT22;2338;49.602;8.722;2022-12-18T05:06:48;-8.90;99.90
4651;DHT22;2338;49.602;8.722;2022-12-18T05:09:34;-8.80;99.90
4651;DHT22;2338;49.602;8.722;2022-12-18T05:12:20;-8.60;99.90
4651;DHT22;2338;49.602;8.722;2022-12-18T05:15:09;-8.70;99.90
4651;DHT22;2338;49.602;8.722;2022-12-18T05:17:57;-8.70;99.90
4651;DHT22;2338;49.602;8.722;2022-12-18T05:20:43;-8.80;99.90
4651;DHT22;2338;49.602;8.722;2022-12-18T05:23:28;-8.70;99.90
4651;DHT22;2338;49.602;8.722;2022-12-18T05:26:16;-8.60;99.90
4651;DHT22;2338;49.602;8.722;2022-12-18T05:29:02;-8.60;99.90
4651;DHT22;2338;49.602;8.722;2022-12-18T05:31:48;-8.60;99.90
4651;DHT22;2338;49.602;8.722;2022-12-18T05:34:35;-8.60;99.90
4651;DHT22;2338;49.602;8.722;2022-12-18T05:37:21;-8.60;99.90
4651;DHT22;2338;49.602;8.722;2022-12-18T05:40:08;-8.50;99.90
4651;DHT22;2338;49.602;8.722;2022-12-18T05:42:53;-8.50;99.90
4651;DHT22;2338;49.602;8.722;2022-12-18T05:45:40;-8.60;99.90
4651;DHT22;2338;49.602;8.722;2022-12-18T05:48:25;-8.50;99.90
4651;DHT22;2338;49.602;8.722;2022-12-18T05:51:14;-8.40;99.90
4651;DHT22;2338;49.602;8.722;2022-12-18T05:54:00;-8.40;99.90
4651;DHT22;2338;49.602;8.722;2022-12-18T05:56:46;-8.50;99.90
4651;DHT22;2338;49.602;8.722;2022-12-18T05:59:32;-8.60;99.90
4651;DHT22;2338;49.602;8.722;2022-12-18T06:02:18;-8.80;99.90
4651;DHT22;2338;49.602;8.722;2022-12-18T06:05:05;-9.00;99.90
4651;DHT22;2338;49.602;8.722;2022-12-18T06:07:53;-9.20;99.90
4651;DHT22;2338;49.602;8.722;2022-12-18T06:10:39;-9.10;99.90
4651;DHT22;2338;49.602;8.722;2022-12-18T06:13:25;-9.10;99.90
4651;DHT22;2338;49.602;8.722;2022-12-18T06:16:10;-9.00;99.90
4651;DHT22;2338;49.602;8.722;2022-12-18T06:18:57;-8.90;99.90
4651;DHT22;2338;49.602;8.722;2022-12-18T06:21:42;-8.90;99.90
4651;DHT22;2338;49.602;8.722;2022-12-18T06:24:29;-8.80;99.90
4651;DHT22;2338;49.602;8.722;2022-12-18T06:27:15;-8.80;99.90
4651;DHT22;2338;49.602;8.722;2022-12-18T06:30:01;-8.70;99.90
4651;DHT22;2338;49.602;8.722;2022-12-18T06:32:48;-8.60;99.90
4651;DHT22;2338;49.602;8.722;2022-12-18T06:35:33;-8.50;99.90
4651;DHT22;2338;49.602;8.722;2022-12-18T06:38:19;-8.50;99.90
4651;DHT22;2338;49.602;8.722;2022-12-18T06:41:08;-8.40;99.90
4651;DHT22;2338;49.602;8.722;2022-12-18T06:43:54;-8.30;99.90
4651;DHT22;2338;49.602;8.722;2022-12-18T06:46:39;-8.50;99.90
4651;DHT22;2338;49.602;8.722;2022-12-18T06:49:25;-8.40;99.90
4651;DHT22;2338;49.602;8.722;2022-12-18T06:52:10;-8.60;99.90
4651;DHT22;2338;49.602;8.722;2022-12-18T06:54:56;-8.80;99.90
4651;DHT22;2338;49.602;8.722;2022-12-18T06:57:43;-8.60;99.90
4651;DHT22;2338;49.602;8.722;2022-12-18T07:00:29;-8.60;99.90
4651;DHT22;2338;49.602;8.722;2022-12-18T07:03:14;-8.60;99.90
4651;DHT22;2338;49.602;8.722;2022-12-18T07:06:00;-8.50;99.90
4651;DHT22;2338;49.602;8.722;2022-12-18T07:08:46;-8.50;99.90
4651;DHT22;2338;49.602;8.722;2022-12-18T07:11:32;-8.60;99.90
4651;DHT22;2338;49.602;8.722;2022-12-18T07:14:19;-8.70;99.90
4651;DHT22;2338;49.602;8.722;2022-12-18T07:17:05;-8.70;99.90
4651;DHT22;2338;49.602;8.722;2022-12-18T07:19:50;-8.70;99.90
4651;DHT22;2338;49.602;8.722;2022-12-18T07:22:36;-8.50;99.90
4651;DHT22;2338;49.602;8.722;2022-12-18T07:25:22;-8.60;99.90
4651;DHT22;2338;49.602;8.722;2022-12-18T07:28:08;-8.50;99.90
4651;DHT22;2338;49.602;8.722;2022-12-18T07:30:55;-8.40;99.90
4651;DHT22;2338;49.602;8.722;2022-12-18T07:33:41;-8.30;99.90
4651;DHT22;2338;49.602;8.722;2022-12-18T07:36:27;-8.30;99.90
4651;DHT22;2338;49.602;8.722;2022-12-18T07:39:12;-8.30;99.90
4651;DHT22;2338;49.602;8.722;2022-12-18T07:41:59;-8.30;99.90
4651;DHT22;2338;49.602;8.722;2022-12-18T07:45:03;-8.30;99.90
4651;DHT22;2338;49.602;8.722;2022-12-18T07:47:51;-8.30;99.90
4651;DHT22;2338;49.602;8.722;2022-12-18T07:50:36;-8.30;99.90
4651;DHT22;2338;49.602;8.722;2022-12-18T07:53:22;-8.30;99.90
4651;DHT22;2338;49.602;8.722;2022-12-18T07:56:09;-8.40;99.90
4651;DHT22;2338;49.602;8.722;2022-12-18T07:58:55;-8.40;99.90
4651;DHT22;2338;49.602;8.722;2022-12-18T08:01:41;-8.30;99.90
4651;DHT22;2338;49.602;8.722;2022-12-18T08:04:28;-8.30;99.90
4651;DHT22;2338;49.602;8.722;2022-12-18T08:07:14;-8.30;99.90
4651;DHT22;2338;49.602;8.722;2022-12-18T08:09:59;-8.20;99.90
4651;DHT22;2338;49.602;8.722;2022-12-18T08:12:45;-8.30;99.90
4651;DHT22;2338;49.602;8.722;2022-12-18T08:15:31;-8.20;99.90
4651;DHT22;2338;49.602;8.722;2022-12-18T08:18:17;-8.20;99.90
4651;DHT22;2338;49.602;8.722;2022-12-18T08:21:11;-8.10;99.90
4651;DHT22;2338;49.602;8.722;2022-12-18T08:23:59;-7.90;99.90
4651;DHT22;2338;49.602;8.722;2022-12-18T08:26:45;-7.90;99.90
4651;DHT22;2338;49.602;8.722;2022-12-18T08:29:31;-7.90;99.90
4651;DHT22;2338;49.602;8.722;2022-12-18T08:32:18;-7.80;99.90
4651;DHT22;2338;49.602;8.722;2022-12-18T08:35:04;-7.70;99.90
4651;DHT22;2338;49.602;8.722;2022-12-18T08:37:51;-7.60;99.90
4651;DHT22;2338;49.602;8.722;2022-12-18T08:40:37;-7.70;99.90
4651;DHT22;2338;49.602;8.722;2022-12-18T08:43:23;-7.70;99.90
4651;DHT22;2338;49.602;8.722;2022-12-18T08:46:27;-7.50;99.90
4651;DHT22;2338;49.602;8.722;2022-12-18T08:49:16;-7.60;99.90
4651;DHT22;2338;49.602;8.722;2022-12-18T08:52:02;-7.60;99.90
4651;DHT22;2338;49.602;8.722;2022-12-18T08:54:49;-7.50;99.90
4651;DHT22;2338;49.602;8.722;2022-12-18T08:57:35;-7.40;99.90
4651;DHT22;2338;49.602;8.722;2022-12-18T09:00:20;-7.30;99.90
4651;DHT22;2338;49.602;8.722;2022-12-18T09:03:11;-7.40;99.90
4651;DHT22;2338;49.602;8.722;2022-12-18T09:05:57;-7.30;99.90
4651;DHT22;2338;49.602;8.722;2022-12-18T09:08:42;-7.40;99.90
4651;DHT22;2338;49.602;8.722;2022-12-18T09:11:29;-7.30;99.90
4651;DHT22;2338;49.602;8.722;2022-12-18T09:14:15;-7.20;99.90
4651;DHT22;2338;49.602;8.722;2022-12-18T09:17:00;-7.10;99.90
4651;DHT22;2338;49.602;8.722;2022-12-18T09:19:46;-7.00;99.90
4651;DHT22;2338;49.602;8.722;2022-12-18T09:22:32;-6.90;99.90
4651;DHT22;2338;49.602;8.722;2022-12-18T09:25:17;-6.80;99.90
4651;DHT22;2338;49.602;8.722;2022-12-18T09:28:06;-6.70;99.90
4651;DHT22;2338;49.602;8.722;2022-12-18T09:30:54;-6.70;99.90
4651;DHT22;2338;49.602;8.722;2022-12-18T09:33:40;-6.70;99.90
4651;DHT22;2338;49.602;8.722;2022-12-18T09:36:26;-6.70;99.90
4651;DHT22;2338;49.602;8.722;2022-12-18T09:39:11;-6.50;99.90
4651;DHT22;2338;49.602;8.722;2022-12-18T09:41:58;-6.40;99.90
4651;DHT22;2338;49.602;8.722;2022-12-18T09:44:49;-6.30;99.90
4651;DHT22;2338;49.602;8.722;2022-12-18T09:47:37;-6.20;99.90
4651;DHT22;2338;49.602;8.722;2022-12-18T09:50:27;-6.20;99.90
4651;DHT22;2338;49.602;8.722;2022-12-18T09:53:17;-6.00;99.90
4651;DHT22;2338;49.602;8.722;2022-12-18T09:56:05;-5.80;99.90
4651;DHT22;2338;49.602;8.722;2022-12-18T09:58:57;-5.60;99.90
4651;DHT22;2338;49.602;8.722;2022-12-18T10:01:44;-5.40;99.90
4651;DHT22;2338;49.602;8.722;2022-12-18T10:04:31;-5.20;99.90
4651;DHT22;2338;49.602;8.722;2022-12-18T10:07:22;-5.00;99.90
4651;DHT22;2338;49.602;8.722;2022-12-18T10:10:15;-4.80;99.90
4651;DHT22;2338;49.602;8.722;2022-12-18T10:13:15;-4.60;99.90
4651;DHT22;2338;49.602;8.722;2022-12-18T10:16:09;-4.50;99.90
4651;DHT22;2338;49.602;8.722;2022-12-18T10:22:14;-4.20;99.90
4651;DHT22;2338;49.602;8.722;2022-12-18T10:25:10;-4.00;99.90
4651;DHT22;2338;49.602;8.722;2022-12-18T10:28:09;-3.70;99.90
4651;DHT22;2338;49.602;8.722;2022-12-18T10:30:56;-3.20;99.90
4651;DHT22;2338;49.602;8.722;2022-12-18T10:33:41;-2.60;99.90
4651;DHT22;2338;49.602;8.722;2022-12-18T10:36:28;-2.20;99.90
4651;DHT22;2338;49.602;8.722;2022-12-18T10:39:16;-1.80;99.90
4651;DHT22;2338;49.602;8.722;2022-12-18T10:42:11;-1.60;99.90
4651;DHT22;2338;49.602;8.722;2022-12-18T10:45:02;-1.40;99.90
4651;DHT22;2338;49.602;8.722;2022-12-18T10:47:50;-1.20;99.90
4651;DHT22;2338;49.602;8.722;2022-12-18T10:50:37;-1.10;99.90
4651;DHT22;2338;49.602;8.722;2022-12-18T10:53:26;-1.00;99.90
4651;DHT22;2338;49.602;8.722;2022-12-18T10:56:12;-1.00;99.90
4651;DHT22;2338;49.602;8.722;2022-12-18T10:59:00;-0.90;99.90
4651;DHT22;2338;49.602;8.722;2022-12-18T11:01:48;-0.90;99.90
4651;DHT22;2338;49.602;8.722;2022-12-18T11:04:34;-0.90;99.90
4651;DHT22;2338;49.602;8.722;2022-12-18T11:07:19;-0.90;99.90
4651;DHT22;2338;49.602;8.722;2022-12-18T11:10:15;-0.90;99.90
4651;DHT22;2338;49.602;8.722;2022-12-18T11:13:17;-0.90;99.90
4651;DHT22;2338;49.602;8.722;2022-12-18T11:16:04;-0.90;99.90
4651;DHT22;2338;49.602;8.722;2022-12-18T11:18:50;-0.80;99.90
4651;DHT22;2338;49.602;8.722;2022-12-18T11:21:39;-0.80;99.90
4651;DHT22;2338;49.602;8.722;2022-12-18T11:24:29;-0.80;99.90
4651;DHT22;2338;49.602;8.722;2022-12-18T11:27:18;-0.70;99.90
4651;DHT22;2338;49.602;8.722;2022-12-18T11:30:08;-0.70;99.90
4651;DHT22;2338;49.602;8.722;2022-12-18T11:32:58;-0.80;99.90
4651;DHT22;2338;49.602;8.722;2022-12-18T11:35:49;-0.90;99.90
4651;DHT22;2338;49.602;8.722;2022-12-18T11:38:37;-0.90;99.90
4651;DHT22;2338;49.602;8.722;2022-12-18T11:41:29;-1.00;99.90
4651;DHT22;2338;49.602;8.722;2022-12-18T11:44:35;-1.00;99.90
4651;DHT22;2338;49.602;8.722;2022-12-18T11:47:28;-0.90;99.90
4651;DHT22;2338;49.602;8.722;2022-12-18T11:50:19;-1.00;99.90
4651;DHT22;2338;49.602;8.722;2022-12-18T11:53:11;-0.90;99.90
4651;DHT22;2338;49.602;8.722;2022-12-18T11:56:17;-0.90;99.90
4651;DHT22;2338;49.602;8.722;2022-12-18T11:59:17;-0.90;99.90
4651;DHT22;2338;49.602;8.722;2022-12-18T12:02:17;-0.80;99.90
4651;DHT22;2338;49.602;8.722;2022-12-18T12:05:21;-0.70;99.90
4651;DHT22;2338;49.602;8.722;2022-12-18T12:08:15;-0.60;99.90
4651;DHT22;2338;49.602;8.722;2022-12-18T12:11:07;-0.60;99.90
4651;DHT22;2338;49.602;8.722;2022-12-18T12:14:12;-0.60;99.90
4651;DHT22;2338;49.602;8.722;2022-12-18T12:17:04;-0.50;99.90
4651;DHT22;2338;49.602;8.722;2022-12-18T12:19:59;-0.50;99.90
4651;DHT22;2338;49.602;8.722;2022-12-18T12:22:54;-0.40;99.90
4651;DHT22;2338;49.602;8.722;2022-12-18T12:25:46;-0.40;99.90
4651;DHT22;2338;49.602;8.722;2022-12-18T12:28:49;-0.30;99.90
4651;DHT22;2338;49.602;8.722;2022-12-18T12:31:47;-0.20;99.90
4651;DHT22;2338;49.602;8.722;2022-12-18T12:34:46;-0.10;99.90
4651;DHT22;2338;49.602;8.722;2022-12-18T12:37:40;0.10;99.90
4651;DHT22;2338;49.602;8.722;2022-12-18T12:40:33;0.30;99.90
4651;DHT22;2338;49.602;8.722;2022-12-18T12:43:25;0.40;99.90
4651;DHT22;2338;49.602;8.722;2022-12-18T12:46:13;0.60;99.90
4651;DHT22;2338;49.602;8.722;2022-12-18T12:49:02;0.70;99.90
4651;DHT22;2338;49.602;8.722;2022-12-18T12:51:55;0.50;99.90
4651;DHT22;2338;49.602;8.722;2022-12-18T12:54:46;0.50;99.90
4651;DHT22;2338;49.602;8.722;2022-12-18T12:57:36;0.60;99.90
4651;DHT22;2338;49.602;8.722;2022-12-18T13:00:23;0.60;99.90
4651;DHT22;2338;49.602;8.722;2022-12-18T13:03:18;0.60;99.90
4651;DHT22;2338;49.602;8.722;2022-12-18T13:06:12;0.50;99.90
4651;DHT22;2338;49.602;8.722;2022-12-18T13:09:00;0.40;99.90
4651;DHT22;2338;49.602;8.722;2022-12-18T13:11:47;0.40;99.90
4651;DHT22;2338;49.602;8.722;2022-12-18T13:14:51;0.30;99.90
4651;DHT22;2338;49.602;8.722;2022-12-18T13:17:37;0.10;99.90
4651;DHT22;2338;49.602;8.722;2022-12-18T13:20:32;0.00;99.90
4651;DHT22;2338;49.602;8.722;2022-12-18T13:23:33;-0.10;99.90
4651;DHT22;2338;49.602;8.722;2022-12-18T13:26:33;-0.20;99.90
4651;DHT22;2338;49.602;8.722;2022-12-18T13:29:42;-0.40;99.90
4651;DHT22;2338;49.602;8.722;2022-12-18T13:32:27;-0.40;99.90
4651;DHT22;2338;49.602;8.722;2022-12-18T13:35:38;-0.40;99.90
4651;DHT22;2338;49.602;8.722;2022-12-18T13:38:33;-0.30;99.90
4651;DHT22;2338;49.602;8.722;2022-12-18T13:41:25;-0.30;99.90
4651;DHT22;2338;49.602;8.722;2022-12-18T13:44:17;-0.30;99.90
4651;DHT22;2338;49.602;8.722;2022-12-18T13:47:27;-0.30;99.90
4651;DHT22;2338;49.602;8.722;2022-12-18T13:50:27;-0.40;99.90
4651;DHT22;2338;49.602;8.722;2022-12-18T13:53:20;-0.40;99.90
4651;DHT22;2338;49.602;8.722;2022-12-18T13:56:06;-0.40;99.90
4651;DHT22;2338;49.602;8.722;2022-12-18T13:59:13;-0.40;99.90
4651;DHT22;2338;49.602;8.722;2022-12-18T14:02:05;-0.40;99.90
4651;DHT22;2338;49.602;8.722;2022-12-18T14:04:54;-0.40;99.90
4651;DHT22;2338;49.602;8.722;2022-12-18T14:07:40;-0.60;99.90
4651;DHT22;2338;49.602;8.722;2022-12-18T14:10:26;-0.70;99.90
4651;DHT22;2338;49.602;8.722;2022-12-18T14:13:17;-0.70;99.90
4651;DHT22;2338;49.602;8.722;2022-12-18T14:16:06;-0.70;99.90
4651;DHT22;2338;49.602;8.722;2022-12-18T14:18:54;-0.60;99.90
4651;DHT22;2338;49.602;8.722;2022-12-18T14:21:46;-0.70;99.90
4651;DHT22;2338;49.602;8.722;2022-12-18T14:24:32;-0.70;99.90
4651;DHT22;2338;49.602;8.722;2022-12-18T14:27:23;-0.60;99.90
4651;DHT22;2338;49.602;8.722;2022-12-18T14:30:24;-0.70;99.90
4651;DHT22;2338;49.602;8.722;2022-12-18T14:33:15;-0.70;99.90
4651;DHT22;2338;49.602;8.722;2022-12-18T14:36:03;-0.80;99.90
4651;DHT22;2338;49.602;8.722;2022-12-18T14:38:52;-0.80;99.90
4651;DHT22;2338;49.602;8.722;2022-12-18T14:41:38;-0.80;99.90
4651;DHT22;2338;49.602;8.722;2022-12-18T14:44:24;-0.80;99.90
4651;DHT22;2338;49.602;8.722;2022-12-18T14:47:13;-0.80;99.90
4651;DHT22;2338;49.602;8.722;2022-12-18T14:50:00;-0.80;99.90
4651;DHT22;2338;49.602;8.722;2022-12-18T14:52:45;-0.80;99.90
4651;DHT22;2338;49.602;8.722;2022-12-18T14:55:32;-0.80;99.90
4651;DHT22;2338;49.602;8.722;2022-12-18T14:58:18;-0.80;99.90
4651;DHT22;2338;49.602;8.722;2022-12-18T15:01:04;-0.80;99.90
4651;DHT22;2338;49.602;8.722;2022-12-18T15:03:51;-0.80;99.90
4651;DHT22;2338;49.602;8.722;2022-12-18T15:06:37;-0.90;99.90
4651;DHT22;2338;49.602;8.722;2022-12-18T15:09:26;-0.90;99.90
4651;DHT22;2338;49.602;8.722;2022-12-18T15:12:26;-0.90;99.90
4651;DHT22;2338;49.602;8.722;2022-12-18T15:15:44;-1.00;99.90
4651;DHT22;2338;49.602;8.722;2022-12-18T15:18:32;-1.00;99.90
4651;DHT22;2338;49.602;8.722;2022-12-18T15:21:19;-1.20;99.90
4651;DHT22;2338;49.602;8.722;2022-12-18T15:24:16;-1.10;99.90
4651;DHT22;2338;49.602;8.722;2022-12-18T15:27:03;-1.20;99.90
4651;DHT22;2338;49.602;8.722;2022-12-18T15:30:20;-1.30;99.90
4651;DHT22;2338;49.602;8.722;2022-12-18T15:33:24;-1.30;99.90
4651;DHT22;2338;49.602;8.722;2022-12-18T15:36:11;-1.30;99.90
4651;DHT22;2338;49.602;8.722;2022-12-18T15:38:58;-1.40;99.90
4651;DHT22;2338;49.602;8.722;2022-12-18T15:41:43;-1.40;99.90
4651;DHT22;2338;49.602;8.722;2022-12-18T15:44:49;-1.40;99.90
4651;DHT22;2338;49.602;8.722;2022-12-18T15:47:35;-1.40;99.90
4651;DHT22;2338;49.602;8.722;2022-12-18T15:50:21;-1.40;99.90
4651;DHT22;2338;49.602;8.722;2022-12-18T15:53:08;-1.40;99.90
4651;DHT22;2338;49.602;8.722;2022-12-18T15:55:54;-1.50;99.90
4651;DHT22;2338;49.602;8.722;2022-12-18T15:58:57;-1.40;99.90
4651;DHT22;2338;49.602;8.722;2022-12-18T16:01:45;-1.50;99.90
4651;DHT22;2338;49.602;8.722;2022-12-18T16:04:32;-1.50;99.90
4651;DHT22;2338;49.602;8.722;2022-12-18T16:07:18;-1.50;99.90
4651;DHT22;2338;49.602;8.722;2022-12-18T16:10:04;-1.50;99.90
4651;DHT22;2338;49.602;8.722;2022-12-18T16:12:50;-1.50;99.90
4651;DHT22;2338;49.602;8.722;2022-12-18T16:15:36;-1.50;99.90
4651;DHT22;2338;49.602;8.722;2022-12-18T16:18:22;-1.50;99.90
4651;DHT22;2338;49.602;8.722;2022-12-18T16:21:09;-1.40;99.90
4651;DHT22;2338;49.602;8.722;2022-12-18T16:23:55;-1.50;99.90
4651;DHT22;2338;49.602;8.722;2022-12-18T16:26:41;-1.50;99.90
4651;DHT22;2338;49.602;8.722;2022-12-18T16:29:27;-1.50;99.90
4651;DHT22;2338;49.602;8.722;2022-12-18T16:32:15;-1.50;99.90
4651;DHT22;2338;49.602;8.722;2022-12-18T16:35:01;-1.50;99.90
4651;DHT22;2338;49.602;8.722;2022-12-18T16:37:48;-1.40;99.90
4651;DHT22;2338;49.602;8.722;2022-12-18T16:40:33;-1.40;99.90
4651;DHT22;2338;49.602;8.722;2022-12-18T16:43:38;-1.40;99.90
4651;DHT22;2338;49.602;8.722;2022-12-18T16:46:24;-1.40;99.90
4651;DHT22;2338;49.602;8.722;2022-12-18T16:49:10;-1.30;99.90
4651;DHT22;2338;49.602;8.722;2022-12-18T16:51:56;-1.30;99.90
4651;DHT22;2338;49.602;8.722;2022-12-18T16:54:49;-1.30;99.90
4651;DHT22;2338;49.602;8.722;2022-12-18T16:57:34;-1.40;99.90
4651;DHT22;2338;49.602;8.722;2022-12-18T17:00:20;-1.30;99.90
4651;DHT22;2338;49.602;8.722;2022-12-18T17:03:06;-1.30;99.90
4651;DHT22;2338;49.602;8.722;2022-12-18T17:05:51;-1.30;99.90
4651;DHT22;2338;49.602;8.722;2022-12-18T17:08:37;-1.30;99.90
4651;DHT22;2338;49.602;8.722;2022-12-18T17:11:25;-1.30;99.90
4651;DHT22;2338;49.602;8.722;2022-12-18T17:14:14;-1.30;99.90
4651;DHT22;2338;49.602;8.722;2022-12-18T17:17:00;-1.20;99.90
4651;DHT22;2338;49.602;8.722;2022-12-18T17:19:45;-1.30;99.90
4651;DHT22;2338;49.602;8.722;2022-12-18T17:22:31;-1.20;99.90
4651;DHT22;2338;49.602;8.722;2022-12-18T17:25:17;-1.30;99.90
4651;DHT22;2338;49.602;8.722;2022-12-18T17:28:04;-1.30;99.90
4651;DHT22;2338;49.602;8.722;2022-12-18T17:30:50;-1.30;99.90
4651;DHT22;2338;49.602;8.722;2022-12-18T17:33:35;-1.20;99.90
4651;DHT22;2338;49.602;8.722;2022-12-18T17:36:22;-1.20;99.90
4651;DHT22;2338;49.602;8.722;2022-12-18T17:39:15;-1.20;99.90
4651;DHT22;2338;49.602;8.722;2022-12-18T17:42:01;-1.10;99.90
4651;DHT22;2338;49.602;8.722;2022-12-18T17:44:48;-1.10;99.90
4651;DHT22;2338;49.602;8.722;2022-12-18T17:47:34;-1.00;99.90
4651;DHT22;2338;49.602;8.722;2022-12-18T17:50:19;-1.10;99.90
4651;DHT22;2338;49.602;8.722;2022-12-18T17:53:05;-1.00;99.90
4651;DHT22;2338;49.602;8.722;2022-12-18T17:55:53;-1.00;99.90
4651;DHT22;2338;49.602;8.722;2022-12-18T17:58:40;-1.00;99.90
4651;DHT22;2338;49.602;8.722;2022-12-18T18:01:27;-0.90;99.90
4651;DHT22;2338;49.602;8.722;2022-12-18T18:04:13;-1.00;99.90
4651;DHT22;2338;49.602;8.722;2022-12-18T18:06:58;-1.10;99.90
4651;DHT22;2338;49.602;8.722;2022-12-18T18:09:44;-1.10;99.90
4651;DHT22;2338;49.602;8.722;2022-12-18T18:12:30;-1.00;99.90
4651;DHT22;2338;49.602;8.722;2022-12-18T18:15:33;-1.00;99.90
4651;DHT22;2338;49.602;8.722;2022-12-18T18:18:20;-0.90;99.90
4651;DHT22;2338;49.602;8.722;2022-12-18T18:21:07;-0.90;99.90
4651;DHT22;2338;49.602;8.722;2022-12-18T18:23:53;-0.90;99.90
4651;DHT22;2338;49.602;8.722;2022-12-18T18:26:39;-0.90;99.90
4651;DHT22;2338;49.602;8.722;2022-12-18T18:29:27;-0.80;99.90
4651;DHT22;2338;49.602;8.722;2022-12-18T18:32:13;-0.90;99.90